createdAt,value
2019-03-10T00:01:21.421Z,5.63
2019-03-10T00:06:24.996Z,5.33
2019-03-10T00:11:28.155Z,6.57
2019-03-10T00:16:31.274Z,4.60
2019-03-10T00:21:34.477Z,5.00
2019-03-10T00:26:37.431Z,5.40
2019-03-10T00:31:40.685Z,5.50
2019-03-10T00:36:43.965Z,4.87
2019-03-10T00:42:14.565Z,6.87
2019-03-10T00:47:53.334Z,7.57
2019-03-10T00:53:00.416Z,5.80
2019-03-10T00:58:03.401Z,5.33
2019-03-10T01:03:06.536Z,5.20
2019-03-10T01:08:09.451Z,4.80
2019-03-10T01:13:12.650Z,4.73
2019-03-10T01:18:16.907Z,4.40
2019-03-10T01:23:20.422Z,5.43
2019-03-10T01:28:23.900Z,5.07
2019-03-10T01:33:39.367Z,5.93
2019-03-10T01:38:42.634Z,5.70
2019-03-10T01:43:45.488Z,6.03
2019-03-10T01:48:48.268Z,4.40
2019-03-10T01:53:51.511Z,5.50
2019-03-10T01:58:55.028Z,5.83
2019-03-10T02:03:58.956Z,5.93
2019-03-10T02:09:02.448Z,4.53
2019-03-10T02:14:05.352Z,6.00
2019-03-10T02:19:08.693Z,4.20
2019-03-10T02:24:11.703Z,5.63
2019-03-10T02:29:14.897Z,4.63
2019-03-10T02:34:17.807Z,5.23
2019-03-10T02:39:20.614Z,4.20
2019-03-10T02:44:24.280Z,6.07
2019-03-10T02:49:27.825Z,5.50
2019-03-10T02:54:30.697Z,4.30
2019-03-10T02:59:34.258Z,5.10
2019-03-10T03:04:37.819Z,3.77
2019-03-10T03:09:41.217Z,5.80
2019-03-10T03:14:44.752Z,5.40
2019-03-10T03:19:48.025Z,4.33
2019-03-10T03:24:51.231Z,5.37
2019-03-10T03:29:54.517Z,4.43
2019-03-10T03:34:57.349Z,4.43
2019-03-10T03:40:00.998Z,4.53
2019-03-10T03:45:04.631Z,4.40
2019-03-10T03:50:07.882Z,4.37
2019-03-10T03:55:10.971Z,4.50
2019-03-10T04:00:14.024Z,4.27
2019-03-10T04:05:17.224Z,4.70
2019-03-10T04:10:20.802Z,4.93
2019-03-10T04:15:23.848Z,5.60
2019-03-10T04:20:26.844Z,6.07
2019-03-10T04:25:29.987Z,4.13
2019-03-10T04:30:33.167Z,4.10
2019-03-10T04:35:36.177Z,5.90
2019-03-10T04:40:39.384Z,4.70
2019-03-10T04:45:42.899Z,3.77
2019-03-10T04:50:46.116Z,4.80
2019-03-10T04:55:56.695Z,4.17
2019-03-10T05:01:00.220Z,3.97
2019-03-10T05:06:03.416Z,4.13
2019-03-10T05:11:06.638Z,3.90
2019-03-10T05:16:09.136Z,3.83
2019-03-10T05:21:12.796Z,4.90
2019-03-10T05:26:16.644Z,3.90
2019-03-10T05:31:19.825Z,4.60
2019-03-10T05:36:22.937Z,4.90
2019-03-10T05:41:26.537Z,3.80
2019-03-10T05:46:29.841Z,4.07
2019-03-10T05:51:33.026Z,5.00
2019-03-10T05:56:35.827Z,3.43
2019-03-10T06:01:39.082Z,4.57
2019-03-10T06:06:42.310Z,3.53
2019-03-10T06:11:45.251Z,4.47
2019-03-10T06:16:48.520Z,3.73
2019-03-10T06:21:51.632Z,4.33
2019-03-10T06:26:57.263Z,2.43
2019-03-10T06:31:59.853Z,4.40
2019-03-10T06:37:02.720Z,4.70
2019-03-10T06:42:06.048Z,3.63
2019-03-10T06:47:08.948Z,2.90
2019-03-10T06:52:11.798Z,4.53
2019-03-10T06:57:15.243Z,3.77
2019-03-10T07:02:18.405Z,3.80
2019-03-10T07:07:21.618Z,3.40
2019-03-10T07:12:26.296Z,3.47
2019-03-10T07:17:29.284Z,3.07
2019-03-10T07:22:32.490Z,4.27
2019-03-10T07:27:44.261Z,4.53
2019-03-10T07:33:06.513Z,3.47
2019-03-10T07:38:25.185Z,4.23
2019-03-10T07:43:56.559Z,3.27
2019-03-10T07:49:18.213Z,3.40
2019-03-10T07:54:49.981Z,4.20
2019-03-10T08:00:22.589Z,4.00
2019-03-10T08:05:45.145Z,2.97
2019-03-10T08:11:26.149Z,4.13
2019-03-10T08:16:48.256Z,3.77
2019-03-10T08:22:13.105Z,2.67
2019-03-10T08:27:38.242Z,4.20
2019-03-10T08:32:59.872Z,3.67
2019-03-10T08:38:11.911Z,3.23
2019-03-10T08:43:53.092Z,3.70
2019-03-10T08:49:25.198Z,4.50
2019-03-10T08:54:48.156Z,3.47
2019-03-10T09:00:13.489Z,4.27
2019-03-10T09:05:30.936Z,2.80
2019-03-10T09:10:44.804Z,3.33
2019-03-10T09:15:56.605Z,3.03
2019-03-10T09:21:21.723Z,3.33
2019-03-10T09:26:42.374Z,3.20
2019-03-10T09:32:04.812Z,4.07
2019-03-10T09:37:38.945Z,3.67
2019-03-10T09:42:53.027Z,2.70
2019-03-10T09:48:25.099Z,2.10
2019-03-10T09:53:46.329Z,4.30
2019-03-10T09:59:08.458Z,3.00
2019-03-10T10:04:33.808Z,3.00
2019-03-10T10:09:56.207Z,3.13
2019-03-10T10:15:19.954Z,3.60
2019-03-10T10:20:48.766Z,3.13
2019-03-10T10:26:07.134Z,2.40
2019-03-10T10:31:32.558Z,2.20
2019-03-10T10:37:00.974Z,2.33
2019-03-10T10:42:26.398Z,1.83
2019-03-10T10:47:47.641Z,2.40
2019-03-10T10:53:13.897Z,2.37
2019-03-10T10:58:24.476Z,2.47
2019-03-10T11:03:45.796Z,2.80
2019-03-10T11:09:09.998Z,2.20
2019-03-10T11:14:31.249Z,2.40
2019-03-10T11:20:08.481Z,2.17
2019-03-10T11:25:23.439Z,2.00
2019-03-10T11:30:55.530Z,2.07
2019-03-10T11:36:23.648Z,2.10
2019-03-10T11:41:47.927Z,2.70
2019-03-10T11:47:13.553Z,2.60
2019-03-10T11:52:25.857Z,2.23
2019-03-10T11:57:43.213Z,2.60
2019-03-10T12:03:02.910Z,1.53
2019-03-10T12:08:20.974Z,1.80
2019-03-10T12:13:24.239Z,1.97
2019-03-10T12:18:27.841Z,2.00
2019-03-10T12:23:31.104Z,2.00
2019-03-10T12:28:34.113Z,2.10
2019-03-10T12:33:37.347Z,2.00
2019-03-10T12:38:40.484Z,1.93
2019-03-10T12:43:43.432Z,1.53
2019-03-10T12:48:46.748Z,1.87
2019-03-10T12:53:50.127Z,1.60
2019-03-10T12:58:53.453Z,2.17
2019-03-10T13:03:59.050Z,1.20
2019-03-10T13:09:04.115Z,1.53
2019-03-10T13:14:07.732Z,1.27
2019-03-10T13:19:10.970Z,1.17
2019-03-10T13:24:15.480Z,1.47
2019-03-10T13:29:18.781Z,1.50
2019-03-10T13:34:23.274Z,2.00
2019-03-10T13:39:26.661Z,2.30
2019-03-10T13:44:29.946Z,1.57
2019-03-10T13:49:33.265Z,1.47
2019-03-10T13:54:36.481Z,1.97
2019-03-10T13:59:39.871Z,1.90
2019-03-10T14:04:43.418Z,2.20
2019-03-10T14:09:46.985Z,2.13
2019-03-10T14:14:49.951Z,1.93
2019-03-10T14:19:54.223Z,2.20
2019-03-10T14:24:57.863Z,1.93
2019-03-10T14:30:00.780Z,2.47
2019-03-10T14:35:04.258Z,1.73
2019-03-10T14:40:08.450Z,2.07
2019-03-10T14:45:12.073Z,1.77
2019-03-10T14:50:15.926Z,2.33
2019-03-10T14:55:19.579Z,1.57
2019-03-10T15:00:23.287Z,1.87
2019-03-10T15:05:26.843Z,2.10
2019-03-10T15:10:29.719Z,2.77
2019-03-10T15:15:33.839Z,2.20
2019-03-10T15:20:37.121Z,1.80
2019-03-10T15:25:40.508Z,2.30
2019-03-10T15:30:43.360Z,1.83
2019-03-10T15:35:45.552Z,1.83
2019-03-10T15:40:49.015Z,2.30
2019-03-10T15:45:52.419Z,2.07
2019-03-10T15:50:55.731Z,1.77
2019-03-10T15:55:58.963Z,2.27
2019-03-10T16:01:03.978Z,2.40
2019-03-10T16:06:07.314Z,2.27
2019-03-10T16:11:11.246Z,2.30
2019-03-10T16:16:18.197Z,2.90
2019-03-10T16:21:22.337Z,2.87
2019-03-10T16:26:25.980Z,2.37
2019-03-10T16:31:29.652Z,2.27
2019-03-10T16:36:33.202Z,2.03
2019-03-10T16:41:37.618Z,2.03
2019-03-10T16:46:40.583Z,2.20
2019-03-10T16:51:43.524Z,2.27
2019-03-10T16:56:47.117Z,1.27
2019-03-10T17:01:50.133Z,2.33
2019-03-10T17:06:53.634Z,1.63
2019-03-10T17:11:56.799Z,1.97
2019-03-10T17:17:00.124Z,1.90
2019-03-10T17:22:03.756Z,1.80
2019-03-10T17:27:07.646Z,2.00
2019-03-10T17:32:13.216Z,2.87
2019-03-10T17:37:20.894Z,2.20
2019-03-10T17:42:27.891Z,2.50
2019-03-10T17:47:36.339Z,2.60
2019-03-10T17:52:40.925Z,3.07
2019-03-10T17:57:45.948Z,2.93
2019-03-10T18:02:51.946Z,2.77
2019-03-10T18:07:58.392Z,4.10
2019-03-10T18:13:02.968Z,2.80
2019-03-10T18:18:09.753Z,2.80
2019-03-10T18:23:17.024Z,2.67
2019-03-10T18:28:24.100Z,2.93
2019-03-10T18:33:29.569Z,2.20
2019-03-10T18:38:35.651Z,2.30
2019-03-10T18:43:43.347Z,2.30
2019-03-10T18:48:51.191Z,2.07
2019-03-10T18:54:01.853Z,2.10
2019-03-10T18:59:08.643Z,3.50
2019-03-10T19:04:16.783Z,2.20
2019-03-10T19:09:25.184Z,2.80
2019-03-10T19:14:30.570Z,2.70
2019-03-10T19:19:38.983Z,1.80
2019-03-10T19:24:46.995Z,2.40
2019-03-10T19:29:53.022Z,2.40
2019-03-10T19:35:01.081Z,2.10
2019-03-10T19:40:07.129Z,1.57
2019-03-10T19:45:15.696Z,1.93
2019-03-10T19:50:27.294Z,1.63
2019-03-10T19:55:31.657Z,3.20
2019-03-10T20:00:39.344Z,2.87
2019-03-10T20:05:48.130Z,1.73
2019-03-10T20:10:56.209Z,1.73
2019-03-10T20:16:15.927Z,1.77
2019-03-10T20:21:25.575Z,1.80
2019-03-10T20:26:32.355Z,1.93
2019-03-10T20:31:39.944Z,2.40
2019-03-10T20:36:52.011Z,2.30
2019-03-10T20:42:05.231Z,1.50
2019-03-10T20:47:11.393Z,1.80
2019-03-10T20:52:20.547Z,2.70
2019-03-10T20:57:29.924Z,3.47
2019-03-10T21:02:38.515Z,2.40
2019-03-10T21:07:47.719Z,1.70
2019-03-10T21:12:55.932Z,1.87
2019-03-10T21:18:05.482Z,2.00
2019-03-10T21:23:14.063Z,2.50
2019-03-10T21:28:22.029Z,1.90
2019-03-10T21:33:27.702Z,2.73
2019-03-10T21:38:31.866Z,2.20
2019-03-10T21:43:35.496Z,2.07
2019-03-10T21:48:38.818Z,2.00
2019-03-10T21:53:42.349Z,1.67
2019-03-10T21:58:45.240Z,1.50
2019-03-10T22:03:48.431Z,2.10
2019-03-10T22:08:52.682Z,1.30
2019-03-10T22:13:55.814Z,2.03
2019-03-10T22:18:59.046Z,1.30
2019-03-10T22:24:03.331Z,2.40
2019-03-10T22:29:07.004Z,1.90
2019-03-10T22:34:10.277Z,1.70
2019-03-10T22:39:13.459Z,3.80
2019-03-10T22:44:16.704Z,2.13
2019-03-10T22:49:19.694Z,1.77
2019-03-10T22:54:22.957Z,1.67
2019-03-10T22:59:26.289Z,1.70
2019-03-10T23:04:30.967Z,1.57
2019-03-10T23:09:34.173Z,1.50
2019-03-10T23:14:37.092Z,2.43
2019-03-10T23:19:40.849Z,1.50
2019-03-10T23:24:44.391Z,1.30
2019-03-10T23:29:47.607Z,1.57
2019-03-10T23:34:50.932Z,1.67
2019-03-10T23:39:53.526Z,1.33
2019-03-10T23:44:56.428Z,1.17
2019-03-10T23:49:59.853Z,1.30
2019-03-10T23:55:03.479Z,1.13
